Oshkosh, Nebraska
Current Conditions -  °F | °C
As of 11:55 PM on Saturday 25 Oct 2014 (Local Time) from KOGA Reporting Station
Clear Clear  
Wind Chill: 52°   Ceiling: Unl
Heat Index: 52°   Visibility: 10mi
Dew Point: 46°   Wind: 7mph
Humidity: 81%   Direction: 90°E
Pressure: 29.91"   Gusts: NA
Location:  41.41°N, 102.34°W
Report Text: KOGA 260555Z AUTO 09006KT 10SM CLR 11/08 A2991 RMK AO2 T01090077 10208 20109
Loading
Personal Weather Stations






























Interactive Weather Map
Tropical Storm Tracking
New forecast layout! Learn more

10-Day Weather Forecast

Advertisements
Track Severe Weather on mobile